Aeroporto :
LOGIN :

Iscrizione | Disclaimer

   EN    FR    IT 

 










Sommario :    VFR   VFR Marginale   IFR   IFR Intensivo   IFR Molto Intensivo
Visibilità : 
Base nubi : 
>= 8 km
>= 3000ft
5 / 8 km
1000 / 3000 ft
1500m / 5 km
500 / 1000 ft
800 / 1500m
200 / 500 ft
< 800m
< 200 ft
Simboli :   Temporali  Nebbia  Neve Forte  Precipitazioni Forti  Vento > 20 kt
SIGMETs :   Varie  Temporali  Ghiacco  Turbolenza  Onda orograficha  Ceneri Vulcaniche






- Altitudine del aeroporto : 280 ft
- Codice IATA : FAE


EKVG - Vagar

ULTIMO METAR :
  • 151750Z AUTO 17005KT 9999 -RA SCT022/// 01/M02 Q1019

METARs OBSOLETI :
  • 151720Z AUTO 15004KT 060V170 9999 -RA BKN029/// 01/M01 Q1019
  • 151650Z AUTO 18006KT 9999 BKN026/// 02/M02 Q1020
  • 151620Z AUTO 21005KT 9999 BKN028/// 02/M00 Q1020
  • 151550Z AUTO 14005KT 9999 -RA BKN025/// 02/M01 Q1020
  • 151520Z AUTO 15005KT 9999 BKN026/// 01/M01 Q1020
  • 151450Z AUTO 17006KT 9999 SCT029/// BKN037/// 01/M01 Q1020

TAF TAF EKVG
Valido dal 15 a 15 ore il 15 a 21 ore UTC


151422Z 1515/1521 17008KT 9999 BKN020



MetMap, La meteo Aeronautica in un colpo d'occhio ! - Copyright ORBIFLY Dicembre 2007 - Disclaimer

ORBIFLY MET'MAP TEAM :

Programmazione e sviluppo : Alexandra Zaïnal
Concezione e sviluppo : Baudouin d'Aumeries
Co-Programmazione e sviluppo : Marc-Olivier Méhu
Supporto tecnico e logistico : Manuel Goepfert
Aiuto per la traduzione : Arnaldo La Scala

Contatto : metmap@orbifly.com




FONTI E CREDITI :

   NOAA